Time;durP1;ratioP1;P1;durP2;ratioP2;P2;SDS_P1;SDS_P2;PMS_P1;PMS_P2;Temp;Humidity;BMP_temperature;BMP_pressure;BME280_temperature;BME280_humidity;BME280_pressure;Samples;Min_cycle;Max_cycle;Signal;HPM_P1;HPM_P2
2023/07/11 00:00:59;;;;;;;;;;;15.60;99.90;;;;;;5079529;28;20048;-61
2023/07/11 00:03:27;;;;;;;5.55;2.30;;;15.60;99.90;;;;;;5089020;28;19962;-61
2023/07/11 00:06:07;;;;;;;10.90;3.33;;;15.60;99.90;;;;;;5069493;28;20037;-58
2023/07/11 00:08:36;;;;;;;7.50;2.42;;;15.60;99.90;;;;;;5067576;28;20523;-59
2023/07/11 00:11:03;;;;;;;3.35;2.00;;;15.50;99.90;;;;;;5059727;28;20052;-65
2023/07/11 00:13:29;;;;;;;7.13;2.38;;;15.50;99.90;;;;;;5066768;28;20293;-54
2023/07/11 00:15:55;;;;;;;;;;;15.50;99.90;;;;;;5064991;28;20040;-60
2023/07/11 00:18:21;;;;;;;3.97;2.20;;;15.40;99.90;;;;;;5063591;28;19963;-61
2023/07/11 00:20:47;;;;;;;;;;;15.40;99.90;;;;;;5059744;28;20071;-59
2023/07/11 00:23:12;;;;;;;5.72;2.47;;;15.40;99.90;;;;;;5051604;28;20443;-58
2023/07/11 00:25:38;;;;;;;;;;;15.40;99.90;;;;;;5059671;28;20067;-59
2023/07/11 00:28:04;;;;;;;5.72;2.70;;;15.40;99.90;;;;;;5068639;28;20119;-60
2023/07/11 00:30:29;;;;;;;8.20;2.85;;;15.40;99.90;;;;;;5063206;27;20387;-55
2023/07/11 00:32:55;;;;;;;;;;;15.30;99.90;;;;;;5059632;28;20041;-59
2023/07/11 00:35:20;;;;;;;7.00;2.13;;;15.30;99.90;;;;;;5053070;28;19924;-61
2023/07/11 00:37:46;;;;;;;;;;;15.40;99.90;;;;;;5063035;28;20806;-61
2023/07/11 00:40:12;;;;;;;6.63;2.35;;;15.40;99.90;;;;;;5054225;28;19920;-57
2023/07/11 00:42:37;;;;;;;5.05;2.20;;;15.40;99.90;;;;;;5062849;28;20041;-56
2023/07/11 00:45:03;;;;;;;;;;;15.40;99.90;;;;;;5059672;28;20055;-61
2023/07/11 00:47:30;;;;;;;5.63;2.30;;;15.40;99.90;;;;;;5062595;28;19923;-61
2023/07/11 00:50:05;;;;;;;7.85;2.33;;;15.40;99.90;;;;;;5062878;28;20051;-59
2023/07/11 00:52:35;;;;;;;6.57;2.50;;;15.40;99.90;;;;;;5057792;28;20098;-58
2023/07/11 00:55:06;;;;;;;4.90;2.40;;;15.30;99.90;;;;;;5051622;28;20859;-60
2023/07/11 00:57:34;;;;;;;9.30;2.42;;;15.30;99.90;;;;;;5061465;28;20131;-61
2023/07/11 01:00:00;;;;;;;6.05;2.55;;;15.30;99.90;;;;;;5051656;28;20101;-58
2023/07/11 01:02:27;;;;;;;;;;;15.20;99.90;;;;;;5062089;28;20045;-58
2023/07/11 01:04:53;;;;;;;4.20;2.42;;;15.20;99.90;;;;;;5047751;28;19942;-54
2023/07/11 01:07:23;;;;;;;5.20;2.08;;;15.20;99.90;;;;;;5066095;28;20415;-58
2023/07/11 01:09:49;;;;;;;2.90;2.15;;;15.10;99.90;;;;;;5059397;28;20079;-53
2023/07/11 01:12:15;;;;;;;;;;;15.10;99.90;;;;;;5063467;28;20133;-53
2023/07/11 01:14:44;;;;;;;4.50;2.22;;;15.10;99.90;;;;;;5059603;28;19920;-62
2023/07/11 01:17:27;;;;;;;8.40;2.50;;;15.10;99.90;;;;;;5058996;28;20520;-55
2023/07/11 01:19:54;;;;;;;7.90;2.88;;;15.10;99.90;;;;;;5055500;28;20090;-60
2023/07/11 01:22:20;;;;;;;5.03;2.55;;;15.10;99.90;;;;;;5063502;28;20396;-60
2023/07/11 01:24:46;;;;;;;6.22;2.47;;;15.00;99.90;;;;;;5065281;28;20504;-52
2023/07/11 01:27:12;;;;;;;6.13;2.72;;;15.00;99.90;;;;;;5059607;28;20048;-51
2023/07/11 01:29:38;;;;;;;8.15;2.70;;;15.00;99.90;;;;;;5069013;28;20045;-58
2023/07/11 01:32:04;;;;;;;;;;;15.00;99.90;;;;;;5063764;28;20044;-59
2023/07/11 01:34:29;;;;;;;9.23;2.78;;;15.00;99.90;;;;;;5066624;28;19916;-59
2023/07/11 01:36:55;;;;;;;;;;;14.90;99.90;;;;;;5058785;28;20857;-57
2023/07/11 01:39:20;;;;;;;7.70;2.85;;;14.90;99.90;;;;;;5060020;28;19924;-61
2023/07/11 01:41:46;;;;;;;;;;;14.80;99.90;;;;;;5058475;28;20032;-58
2023/07/11 01:44:12;;;;;;;6.15;2.15;;;14.80;99.90;;;;;;5060424;28;20109;-58
2023/07/11 01:46:37;;;;;;;4.20;2.22;;;14.80;99.90;;;;;;5060055;28;20063;-58
2023/07/11 01:49:03;;;;;;;;;;;14.80;99.90;;;;;;5058777;28;20041;-60
2023/07/11 01:51:30;;;;;;;3.05;2.17;;;14.80;99.90;;;;;;5057889;28;19923;-60
2023/07/11 01:53:56;;;;;;;5.72;2.13;;;14.80;99.90;;;;;;5070208;28;20531;-60
2023/07/11 01:56:21;;;;;;;;;;;14.70;99.90;;;;;;5060560;28;20041;-60
2023/07/11 01:58:47;;;;;;;5.20;2.03;;;14.70;99.90;;;;;;5062419;28;20007;-58
2023/07/11 02:01:12;;;;;;;;;;;14.70;99.90;;;;;;5061236;28;20051;-60
2023/07/11 02:03:38;;;;;;;4.53;2.25;;;14.70;99.90;;;;;;5062792;28;20279;-55
2023/07/11 02:06:03;;;;;;;;;;;14.70;99.90;;;;;;5064999;28;20512;-61
2023/07/11 02:08:29;;;;;;;6.53;2.70;;;14.80;99.90;;;;;;5071326;28;20429;-60
2023/07/11 02:10:55;;;;;;;;;;;14.70;99.90;;;;;;5063456;28;20392;-60
2023/07/11 02:13:20;;;;;;;6.97;2.25;;;14.70;99.90;;;;;;5062081;28;19981;-60
2023/07/11 02:15:46;;;;;;;;;;;14.70;99.90;;;;;;5061866;28;20097;-62
2023/07/11 02:18:12;;;;;;;6.65;2.55;;;14.70;99.90;;;;;;5057393;28;20028;-55
2023/07/11 02:20:44;;;;;;;7.07;2.10;;;14.70;99.90;;;;;;5066775;28;20466;-57
2023/07/11 02:23:14;;;;;;;5.47;2.65;;;14.70;99.90;;;;;;5065646;28;20093;-59
2023/07/11 02:25:39;;;;;;;8.15;2.30;;;14.70;99.90;;;;;;5062209;28;20139;-60
2023/07/11 02:28:05;;;;;;;;;;;14.70;99.90;;;;;;5064127;28;20116;-59
2023/07/11 02:30:31;;;;;;;5.93;2.63;;;14.70;99.90;;;;;;5060579;28;19985;-59
2023/07/11 02:32:57;;;;;;;3.55;2.17;;;14.60;99.90;;;;;;5061404;28;20519;-58
2023/07/11 02:35:24;;;;;;;;;;;14.60;99.90;;;;;;5060418;28;20052;-58
2023/07/11 02:37:50;;;;;;;4.43;2.22;;;14.60;99.90;;;;;;5064218;28;19926;-59
2023/07/11 02:40:16;;;;;;;6.35;2.13;;;14.60;99.90;;;;;;5060360;28;20043;-59
2023/07/11 02:42:41;;;;;;;;;;;14.60;99.90;;;;;;5064817;28;20409;-58
2023/07/11 02:45:07;;;;;;;5.88;2.53;;;14.60;99.90;;;;;;5059867;28;19916;-58
2023/07/11 02:47:33;;;;;;;6.80;2.50;;;14.50;99.90;;;;;;5066074;28;20068;-61
2023/07/11 02:49:58;;;;;;;5.55;2.28;;;14.50;99.90;;;;;;5059029;28;20036;-60
2023/07/11 02:52:24;;;;;;;;;;;14.50;99.90;;;;;;5064830;28;20044;-59
2023/07/11 02:54:49;;;;;;;6.00;2.20;;;14.50;99.90;;;;;;5061964;28;19924;-61
2023/07/11 02:57:15;;;;;;;6.18;2.28;;;14.50;99.90;;;;;;5051213;28;20043;-61
2023/07/11 02:59:40;;;;;;;;;;;14.40;99.90;;;;;;5052335;28;20043;-59
2023/07/11 03:02:06;;;;;;;7.55;2.65;;;14.40;99.90;;;;;;5062810;28;19928;-60
2023/07/11 03:04:32;;;;;;;5.93;2.53;;;14.50;99.90;;;;;;5067528;28;20036;-59
2023/07/11 03:06:58;;;;;;;;;;;14.40;99.90;;;;;;5058305;28;20047;-61
2023/07/11 03:09:25;;;;;;;4.20;2.05;;;14.40;99.90;;;;;;5061424;28;19916;-57
2023/07/11 03:11:51;;;;;;;9.05;2.88;;;14.40;99.90;;;;;;5063636;28;20119;-57
2023/07/11 03:14:18;;;;;;;4.47;2.20;;;14.40;99.90;;;;;;5059075;28;20304;-55
2023/07/11 03:16:45;;;;;;;4.15;2.28;;;14.40;99.90;;;;;;5060279;28;20459;-60
2023/07/11 03:19:11;;;;;;;6.35;2.15;;;14.30;99.90;;;;;;5070271;28;20043;-59
2023/07/11 03:21:37;;;;;;;4.15;2.65;;;14.30;99.90;;;;;;5041089;28;20080;-55
2023/07/11 03:24:03;;;;;;;;;;;14.40;99.90;;;;;;5035848;28;20598;-56
2023/07/11 03:26:29;;;;;;;7.13;2.42;;;14.30;99.90;;;;;;5042442;28;20842;-50
2023/07/11 03:28:54;;;;;;;6.97;2.63;;;14.30;99.90;;;;;;5051470;28;20045;-56
2023/07/11 03:31:20;;;;;;;;;;;14.30;99.90;;;;;;5054522;28;20041;-61
2023/07/11 03:33:46;;;;;;;5.80;2.20;;;14.30;99.90;;;;;;5058441;28;20022;-62
2023/07/11 03:36:12;;;;;;;4.53;2.40;;;14.30;99.90;;;;;;5056307;28;20105;-58
2023/07/11 03:38:39;;;;;;;;;;;14.30;99.90;;;;;;5063846;28;20048;-61
2023/07/11 03:41:05;;;;;;;2.58;2.08;;;14.30;99.90;;;;;;5049434;28;19922;-59
2023/07/11 03:43:30;;;;;;;4.82;1.80;;;14.30;99.90;;;;;;5052548;28;20040;-57
2023/07/11 03:45:56;;;;;;;;;;;14.20;99.90;;;;;;5055249;28;20048;-57
2023/07/11 03:48:21;;;;;;;8.88;2.35;;;14.20;99.90;;;;;;5053268;28;19925;-56
2023/07/11 03:50:47;;;;;;;;;;;14.20;99.90;;;;;;5059480;28;20797;-61
2023/07/11 03:53:13;;;;;;;6.28;2.63;;;14.30;99.90;;;;;;5052734;28;19920;-59
2023/07/11 03:55:38;;;;;;;6.50;2.28;;;14.40;99.90;;;;;;5061423;28;20045;-56
2023/07/11 03:58:04;;;;;;;;;;;14.40;99.90;;;;;;5059771;28;20122;-62
2023/07/11 04:00:30;;;;;;;9.98;2.40;;;14.40;99.90;;;;;;5058982;28;19966;-60
2023/07/11 04:02:55;;;;;;;;;;;14.40;99.90;;;;;;5066585;28;20037;-60
2023/07/11 04:05:20;;;;;;;6.15;2.20;;;14.50;99.90;;;;;;5065225;28;19964;-57
2023/07/11 04:07:46;;;;;;;;;;;14.50;99.90;;;;;;5062417;28;20467;-57
2023/07/11 04:10:12;;;;;;;4.95;2.65;;;14.60;99.90;;;;;;5057053;28;19920;-60
2023/07/11 04:12:38;;;;;;;;;;;14.70;99.90;;;;;;5064077;28;20479;-59
2023/07/11 04:15:07;;;;;;;3.97;2.00;;;14.70;99.90;;;;;;5059326;28;19920;-61
2023/07/11 04:17:33;;;;;;;5.15;2.13;;;14.80;99.90;;;;;;5063131;28;20283;-55
2023/07/11 04:19:58;;;;;;;;;;;14.80;99.90;;;;;;5065219;28;20129;-59
2023/07/11 04:22:24;;;;;;;4.45;2.15;;;14.90;99.90;;;;;;5061548;28;19924;-57
2023/07/11 04:24:49;;;;;;;3.72;1.83;;;15.00;99.90;;;;;;5067645;28;20568;-55
2023/07/11 04:27:15;;;;;;;7.25;2.00;;;15.00;99.90;;;;;;5061691;28;20246;-58
2023/07/11 04:29:41;;;;;;;;;;;15.10;99.90;;;;;;5059399;28;20123;-61
2023/07/11 04:32:07;;;;;;;5.68;2.20;;;15.20;99.90;;;;;;5061565;28;19916;-56
2023/07/11 04:34:32;;;;;;;;;;;15.30;99.90;;;;;;5073190;28;20094;-57
2023/07/11 04:36:58;;;;;;;5.05;2.20;;;15.40;99.90;;;;;;5061683;28;19924;-57
2023/07/11 04:39:23;;;;;;;;;;;15.40;99.90;;;;;;5061733;28;20048;-61
2023/07/11 04:41:49;;;;;;;4.55;2.08;;;15.70;99.90;;;;;;5061716;28;19916;-61
2023/07/11 04:44:15;;;;;;;;;;;15.70;99.90;;;;;;5055095;28;20071;-58
2023/07/11 04:46:41;;;;;;;3.42;1.75;;;15.80;99.90;;;;;;5061658;28;19920;-59
2023/07/11 04:49:06;;;;;;;10.55;2.22;;;15.90;99.90;;;;;;5069583;28;20036;-55
2023/07/11 04:51:32;;;;;;;;;;;16.00;99.90;;;;;;5058742;28;20040;-58
2023/07/11 04:53:58;;;;;;;3.55;2.17;;;16.00;99.90;;;;;;5070409;28;20016;-60
2023/07/11 04:56:23;;;;;;;4.75;2.22;;;16.10;99.90;;;;;;5058302;28;20036;-59
2023/07/11 04:58:49;;;;;;;5.90;1.70;;;16.60;99.90;;;;;;5063111;28;20036;-59
2023/07/11 05:01:17;;;;;;;4.35;1.88;;;17.00;99.90;;;;;;5061406;28;20815;-56
2023/07/11 05:03:44;;;;;;;6.78;2.38;;;17.00;99.90;;;;;;5054722;28;20045;-57
2023/07/11 05:06:12;;;;;;;4.82;1.67;;;16.90;99.90;;;;;;5054678;28;20044;-59
2023/07/11 05:08:38;;;;;;;3.45;2.08;;;17.00;99.90;;;;;;5064774;28;20072;-58
2023/07/11 05:11:07;;;;;;;3.90;2.05;;;17.00;99.90;;;;;;5062340;28;20750;-57
2023/07/11 05:13:34;;;;;;;2.40;1.80;;;17.00;99.90;;;;;;5072267;28;20595;-58
2023/07/11 05:16:05;;;;;;;4.93;2.30;;;17.10;99.90;;;;;;5058753;28;20252;-57
2023/07/11 05:18:31;;;;;;;4.88;2.25;;;17.20;99.90;;;;;;5059759;28;20632;-54
2023/07/11 05:20:58;;;;;;;8.82;2.17;;;17.30;99.90;;;;;;5066652;28;20093;-58
2023/07/11 05:23:26;;;;;;;5.03;2.35;;;17.40;99.90;;;;;;5063515;28;20060;-53
2023/07/11 05:25:52;;;;;;;8.00;2.40;;;17.50;99.90;;;;;;5050881;28;20041;-57
2023/07/11 05:28:17;;;;;;;;;;;17.60;99.90;;;;;;5067440;28;20036;-59
2023/07/11 05:30:43;;;;;;;4.40;2.60;;;18.00;99.90;;;;;;5058313;28;19967;-59
2023/07/11 05:33:09;;;;;;;4.93;2.10;;;18.30;99.90;;;;;;5062615;28;20403;-56
2023/07/11 05:35:37;;;;;;;;;;;18.40;99.90;;;;;;5065541;28;20032;-58
2023/07/11 05:38:03;;;;;;;4.57;2.10;;;18.70;99.90;;;;;;5068482;28;19927;-61
2023/07/11 05:40:30;;;;;;;3.05;1.95;;;19.60;99.90;;;;;;5070826;28;20051;-61
2023/07/11 05:42:56;;;;;;;4.53;2.42;;;19.90;99.90;;;;;;5072919;28;20044;-57
2023/07/11 05:45:21;;;;;;;;;;;19.70;99.90;;;;;;5062868;28;20470;-60
2023/07/11 05:47:47;;;;;;;3.35;2.35;;;19.50;99.90;;;;;;5067579;28;20731;-66
2023/07/11 05:50:12;;;;;;;11.65;3.20;;;19.40;99.90;;;;;;5067379;28;20052;-55
2023/07/11 05:52:38;;;;;;;5.07;2.58;;;19.40;99.90;;;;;;5066478;28;20032;-59
2023/07/11 05:55:04;;;;;;;6.00;2.78;;;19.40;99.90;;;;;;5068726;28;20041;-58
2023/07/11 05:57:30;;;;;;;6.43;3.28;;;19.50;99.90;;;;;;5062511;28;21243;-57
2023/07/11 05:59:55;;;;;;;8.00;3.13;;;19.50;99.90;;;;;;5062438;28;20036;-55
2023/07/11 06:02:21;;;;;;;5.72;3.03;;;19.50;99.90;;;;;;5066751;28;20039;-54
2023/07/11 06:04:47;;;;;;;;;;;19.50;99.90;;;;;;5065680;28;20051;-57
2023/07/11 06:07:12;;;;;;;6.30;2.55;;;19.50;99.90;;;;;;5065837;28;19924;-62
2023/07/11 06:09:38;;;;;;;5.78;3.63;;;19.60;99.90;;;;;;5065804;28;20037;-57
2023/07/11 06:12:05;;;;;;;7.55;3.30;;;19.70;99.90;;;;;;5062734;28;20111;-59
2023/07/11 06:14:31;;;;;;;6.53;3.00;;;19.80;99.90;;;;;;5060472;28;20121;-61
2023/07/11 06:16:57;;;;;;;5.05;2.83;;;19.90;99.90;;;;;;5063506;28;20119;-60
2023/07/11 06:19:22;;;;;;;7.68;4.32;;;20.10;99.90;;;;;;5068293;28;20155;-58
2023/07/11 06:21:48;;;;;;;12.68;3.47;;;20.30;99.90;;;;;;5060077;28;20032;-58
2023/07/11 06:24:14;;;;;;;6.25;3.47;;;20.40;99.90;;;;;;5076778;28;20036;-57
2023/07/11 06:26:40;;;;;;;5.78;3.78;;;20.60;99.90;;;;;;5063468;28;20040;-55
2023/07/11 06:29:06;;;;;;;6.13;3.38;;;20.70;99.90;;;;;;5067789;28;20089;-61
2023/07/11 06:31:31;;;;;;;6.10;3.42;;;20.70;99.90;;;;;;5059643;28;20510;-59
2023/07/11 06:33:57;;;;;;;4.68;3.20;;;20.90;99.90;;;;;;5062698;28;20466;-59
2023/07/11 06:36:22;;;;;;;5.82;3.50;;;21.00;99.90;;;;;;5062301;28;20044;-59
2023/07/11 06:38:48;;;;;;;6.85;3.42;;;21.10;99.90;;;;;;5065304;28;20040;-59
2023/07/11 06:41:13;;;;;;;10.43;3.38;;;21.40;99.90;;;;;;5058305;28;20061;-59
2023/07/11 06:43:39;;;;;;;4.95;3.05;;;21.60;99.90;;;;;;5062953;28;20032;-59
2023/07/11 06:46:05;;;;;;;7.60;3.55;;;22.10;99.90;;;;;;5064605;28;20090;-59
2023/07/11 06:48:31;;;;;;;4.90;3.08;;;22.30;99.90;;;;;;5061445;28;20048;-60
2023/07/11 06:51:00;;;;;;;4.95;3.28;;;22.30;99.90;;;;;;5064522;28;20047;-59
2023/07/11 06:53:28;;;;;;;8.70;3.10;;;22.50;99.90;;;;;;5063096;28;20050;-62
2023/07/11 06:55:54;;;;;;;12.43;3.40;;;22.70;99.90;;;;;;5049625;28;20028;-62
2023/07/11 06:58:21;;;;;;;7.32;2.63;;;23.20;99.90;;;;;;5059985;28;20039;-59
2023/07/11 07:01:01;;;;;;;4.47;2.92;;;24.00;97.90;;;;;;5060098;28;20455;-62
2023/07/11 07:03:27;;;;;;;5.70;3.40;;;23.80;98.20;;;;;;5062331;28;20094;-63
2023/07/11 07:05:56;;;;;;;6.32;3.10;;;23.50;98.20;;;;;;5054201;28;20032;-62
2023/07/11 07:08:23;;;;;;;4.72;2.83;;;23.70;99.40;;;;;;5061983;28;20059;-60
2023/07/11 07:10:50;;;;;;;4.70;3.00;;;24.00;98.50;;;;;;5058071;28;20124;-60
2023/07/11 07:13:17;;;;;;;7.15;3.10;;;24.10;97.70;;;;;;5069931;28;20047;-61
2023/07/11 07:15:47;;;;;;;5.55;3.50;;;24.00;97.90;;;;;;5057682;28;20048;-56
2023/07/11 07:18:13;;;;;;;5.72;3.22;;;23.80;96.30;;;;;;5072294;28;20067;-59
2023/07/11 07:20:38;;;;;;;5.50;3.42;;;24.00;97.80;;;;;;5061136;28;20070;-62
2023/07/11 07:23:05;;;;;;;4.47;3.15;;;24.60;96.90;;;;;;5064796;28;20039;-63
2023/07/11 07:25:31;;;;;;;4.35;2.97;;;25.10;96.20;;;;;;5064017;28;20044;-59
2023/07/11 07:27:57;;;;;;;4.05;2.90;;;25.90;93.90;;;;;;5064240;28;20044;-55
2023/07/11 07:30:23;;;;;;;4.28;3.00;;;26.50;92.60;;;;;;5072719;28;20036;-61
2023/07/11 07:32:49;;;;;;;5.05;3.20;;;26.70;92.70;;;;;;5069658;28;20205;-62
2023/07/11 07:35:15;;;;;;;5.05;2.70;;;26.70;92.40;;;;;;5062532;28;20044;-61
2023/07/11 07:37:40;;;;;;;6.97;3.60;;;26.10;92.90;;;;;;5066850;28;20047;-56
2023/07/11 07:40:06;;;;;;;7.03;3.70;;;25.70;93.90;;;;;;5066177;28;20086;-55
2023/07/11 07:42:32;;;;;;;7.00;2.53;;;25.40;94.90;;;;;;5068502;28;20032;-61
2023/07/11 07:44:58;;;;;;;6.55;2.88;;;25.10;94.90;;;;;;5068736;28;20046;-59
2023/07/11 07:47:23;;;;;;;5.80;3.08;;;24.90;94.90;;;;;;5065343;28;20040;-61
2023/07/11 07:49:49;;;;;;;6.78;3.40;;;24.60;94.40;;;;;;5065536;28;20072;-60
2023/07/11 07:52:14;;;;;;;8.23;3.38;;;24.60;95.20;;;;;;5069574;28;20142;-60
2023/07/11 07:54:40;;;;;;;5.82;2.60;;;24.50;95.20;;;;;;5070271;28;20032;-59
2023/07/11 07:57:06;;;;;;;4.25;2.72;;;25.10;95.70;;;;;;5060784;28;20068;-62
2023/07/11 07:59:31;;;;;;;7.15;3.28;;;25.90;93.80;;;;;;5073109;28;20044;-61
2023/07/11 08:01:57;;;;;;;3.95;2.65;;;25.90;92.00;;;;;;5066011;28;20048;-58
2023/07/11 08:04:23;;;;;;;6.30;3.13;;;25.60;91.40;;;;;;5072767;28;20045;-56
2023/07/11 08:06:49;;;;;;;5.65;2.83;;;25.50;92.80;;;;;;5062432;28;20136;-61
2023/07/11 08:09:14;;;;;;;5.28;2.92;;;25.30;92.50;;;;;;5071217;28;20499;-58
2023/07/11 08:11:42;;;;;;;4.75;3.40;;;25.60;92.60;;;;;;5065240;28;20040;-61
2023/07/11 08:14:08;;;;;;;5.75;2.92;;;26.20;91.10;;;;;;5074196;28;20432;-60
2023/07/11 08:16:33;;;;;;;6.40;3.22;;;26.40;90.70;;;;;;5064598;28;20040;-58
2023/07/11 08:19:04;;;;;;;4.22;3.20;;;26.80;90.70;;;;;;5065912;28;20435;-62
2023/07/11 08:21:29;;;;;;;6.97;3.40;;;26.70;89.80;;;;;;5066566;28;20040;-62
2023/07/11 08:23:55;;;;;;;6.93;3.50;;;27.40;87.00;;;;;;5070481;28;20110;-63
2023/07/11 08:26:22;;;;;;;4.00;3.20;;;27.60;87.50;;;;;;5067416;28;20055;-61
2023/07/11 08:28:51;;;;;;;4.50;3.03;;;27.60;87.30;;;;;;5061845;28;20128;-56
2023/07/11 08:31:17;;;;;;;5.20;3.55;;;26.60;88.60;;;;;;5060246;28;20033;-65
2023/07/11 08:33:43;;;;;;;11.32;3.05;;;26.10;88.20;;;;;;5075668;28;21146;-58
2023/07/11 08:36:09;;;;;;;7.82;3.47;;;25.70;91.30;;;;;;5064646;28;20093;-56
2023/07/11 08:38:35;;;;;;;5.00;3.25;;;25.50;90.00;;;;;;5065233;28;20032;-57
2023/07/11 08:41:32;;;;;;;5.43;3.30;;;25.70;90.60;;;;;;5061713;28;20039;-58
2023/07/11 08:44:04;;;;;;;10.70;4.00;;;26.20;90.00;;;;;;5062935;28;20048;-61
2023/07/11 08:46:41;;;;;;;6.70;3.58;;;26.80;86.70;;;;;;5065444;28;20045;-58
2023/07/11 08:49:11;;;;;;;8.35;3.53;;;27.10;83.20;;;;;;5066991;28;20071;-56
2023/07/11 08:51:41;;;;;;;8.55;3.42;;;26.90;81.80;;;;;;5068483;28;20955;-58
2023/07/11 08:54:11;;;;;;;9.35;3.60;;;26.90;84.00;;;;;;5065363;28;20040;-61
2023/07/11 08:56:46;;;;;;;7.85;3.17;;;27.40;79.60;;;;;;5058441;28;20044;-60
2023/07/11 08:59:21;;;;;;;5.32;2.70;;;28.50;80.90;;;;;;5057889;28;20098;-58
2023/07/11 09:02:13;;;;;;;5.57;3.42;;;29.60;79.60;;;;;;5063750;28;20045;-56
2023/07/11 09:04:49;;;;;;;4.90;3.03;;;29.50;72.10;;;;;;5055954;28;20041;-56
2023/07/11 09:07:34;;;;;;;7.38;3.53;;;28.90;75.40;;;;;;5059972;28;20051;-57
2023/07/11 09:09:59;;;;;;;4.90;3.17;;;28.30;77.80;;;;;;5059074;28;20120;-60
2023/07/11 09:12:50;;;;;;;7.57;3.65;;;27.60;80.70;;;;;;5063262;28;20147;-59
2023/07/11 09:15:23;;;;;;;5.82;3.58;;;27.10;85.30;;;;;;5066761;28;20127;-63
2023/07/11 09:18:25;;;;;;;7.00;3.35;;;26.80;84.20;;;;;;5066059;28;20432;-63
2023/07/11 09:21:00;;;;;;;6.20;3.45;;;26.50;83.90;;;;;;5059505;28;20036;-58
2023/07/11 09:24:00;;;;;;;8.50;3.73;;;26.40;86.10;;;;;;5069691;28;20048;-56
2023/07/11 09:26:28;;;;;;;6.28;3.70;;;26.30;85.80;;;;;;5053000;28;20128;-62
2023/07/11 09:29:08;;;;;;;5.60;3.50;;;26.20;82.10;;;;;;5067295;28;20035;-62
2023/07/11 09:31:50;;;;;;;5.93;3.55;;;26.10;83.30;;;;;;5066910;28;20036;-59
2023/07/11 09:34:33;;;;;;;10.82;4.90;;;26.20;86.10;;;;;;5072184;28;20411;-59
2023/07/11 09:37:08;;;;;;;8.23;4.53;;;26.00;80.20;;;;;;5063780;28;20496;-60
2023/07/11 09:39:49;;;;;;;5.13;3.95;;;26.00;81.90;;;;;;5069007;28;20040;-60
2023/07/11 09:42:26;;;;;;;6.88;4.03;;;25.80;84.00;;;;;;5061161;28;20040;-57
2023/07/11 09:45:09;;;;;;;6.28;3.90;;;25.80;82.90;;;;;;5066903;28;20068;-60
2023/07/11 09:47:35;;;;;;;6.47;4.40;;;25.90;86.50;;;;;;5076678;28;20090;-59
2023/07/11 09:50:16;;;;;;;9.00;4.18;;;26.00;86.10;;;;;;5073770;28;20033;-58
2023/07/11 09:52:43;;;;;;;5.90;3.75;;;25.80;86.90;;;;;;5061758;28;20044;-59
2023/07/11 09:55:28;;;;;;;9.80;4.38;;;26.10;89.60;;;;;;5062620;28;20037;-60
2023/07/11 09:57:54;;;;;;;6.20;3.60;;;26.40;89.60;;;;;;5058369;28;20040;-60
2023/07/11 10:00:20;;;;;;;5.85;3.55;;;26.60;87.40;;;;;;5067622;28;20052;-59
2023/07/11 10:02:47;;;;;;;9.23;3.53;;;26.50;90.00;;;;;;5063711;28;20036;-60
2023/07/11 10:05:22;;;;;;;6.03;3.80;;;26.60;88.60;;;;;;5063710;28;20064;-57
2023/07/11 10:08:02;;;;;;;7.40;3.90;;;26.70;90.00;;;;;;5060242;28;20193;-58
2023/07/11 10:10:27;;;;;;;7.70;3.63;;;26.70;87.50;;;;;;5072015;28;20064;-58
2023/07/11 10:12:53;;;;;;;7.18;3.45;;;;;;;;;;5052613;28;20464;-62
2023/07/11 10:15:24;;;;;;;4.78;3.20;;;;;;;;;;5068713;28;20028;-60
2023/07/11 10:17:54;;;;;;;7.43;3.25;;;;;;;;;;5057654;28;20440;-61
2023/07/11 10:20:21;;;;;;;10.18;4.05;;;;;;;;;;5060705;28;20144;-61
2023/07/11 10:22:49;;;;;;;6.13;3.70;;;;;;;;;;5066190;28;20039;-60
2023/07/11 10:25:33;;;;;;;6.15;3.60;;;;;;;;;;5057814;28;20044;-60
2023/07/11 10:28:04;;;;;;;5.68;3.38;;;;;;;;;;5057519;28;20028;-60
2023/07/11 10:30:32;;;;;;;7.90;3.53;;;;;;;;;;5063027;28;20036;-58
2023/07/11 10:33:10;;;;;;;8.32;4.35;;;;;;;;;;5057350;28;20032;-62
2023/07/11 10:35:36;;;;;;;6.07;3.85;;;;;;;;;;5067321;28;20063;-59
2023/07/11 10:38:04;;;;;;;7.88;3.70;;;;;;;;;;5058411;28;20068;-63
2023/07/11 10:40:37;;;;;;;9.63;3.80;;;;;;;;;;5074031;28;20458;-62
2023/07/11 10:43:23;;;;;;;7.53;3.53;;;;;;;;;;5067334;28;20402;-59
2023/07/11 10:45:50;;;;;;;8.35;4.47;;;;;;;;;;5059602;28;20056;-59
2023/07/11 10:48:32;;;;;;;6.90;4.45;;;;;;;;;;5058915;28;20040;-61
2023/07/11 10:51:00;;;;;;;7.13;4.43;;;;;;;;;;5069617;28;20113;-61
2023/07/11 10:53:32;;;;;;;8.73;4.38;;;;;;;;;;5061289;28;20561;-61
2023/07/11 10:56:01;;;;;;;5.93;4.35;;;;;;;;;;5066738;28;20051;-59
2023/07/11 10:58:27;;;;;;;8.90;4.93;;;;;;;;;;5060686;28;20136;-60
2023/07/11 11:01:00;;;;;;;7.00;4.55;;;;;;;;;;5060165;28;20541;-58
2023/07/11 11:03:35;;;;;;;6.00;4.15;;;;;;;;;;5061664;28;20451;-61
2023/07/11 11:06:10;;;;;;;8.48;5.00;;;;;;;;;;5068382;28;20365;-56
2023/07/11 11:08:52;;;;;;;10.10;5.03;;;;;;;;;;5060497;28;20044;-60
2023/07/11 11:11:21;;;;;;;7.63;4.57;;;;;;;;;;5069545;28;20040;-58
2023/07/11 11:13:53;;;;;;;10.98;5.05;;;;;;;;;;5058553;28;20044;-60
2023/07/11 11:16:23;;;;;;;9.00;4.72;;;;;;;;;;5058791;28;20072;-58
2023/07/11 11:18:49;;;;;;;10.32;5.25;;;;;;;;;;5056213;28;20522;-57
2023/07/11 11:21:27;;;;;;;17.42;4.57;;;;;;;;;;5070122;28;20036;-61
2023/07/11 11:23:56;;;;;;;7.40;4.25;;;;;;;;;;5067687;28;20061;-59
2023/07/11 11:26:25;;;;;;;10.10;4.70;;;;;;;;;;5068256;28;20558;-59
2023/07/11 11:29:17;;;;;;;6.63;4.40;;;;;;;;;;5051174;28;20037;-61
2023/07/11 11:31:56;;;;;;;7.07;4.28;;;;;;;;;;5031270;28;20064;-61
2023/07/11 11:34:22;;;;;;;9.43;4.40;;;;;;;;;;5067134;28;20036;-57
2023/07/11 11:37:00;;;;;;;7.13;4.10;;;;;;;;;;5071218;28;20036;-61
2023/07/11 11:39:43;;;;;;;6.50;4.20;;;;;;;;;;5062881;28;20135;-59
2023/07/11 11:42:33;;;;;;;9.40;4.65;;;;;;;;;;5053204;28;20029;-62
2023/07/11 11:45:04;;;;;;;11.10;4.45;;;;;;;;;;5056228;28;20102;-64
2023/07/11 11:47:30;;;;;;;10.20;4.30;;;;;;;;;;5057809;28;20045;-63
2023/07/11 11:49:57;;;;;;;4.93;3.60;;;;;;;;;;5053972;28;20155;-59
2023/07/11 11:52:24;;;;;;;6.15;4.20;;;;;;;;;;5055483;28;20129;-60
2023/07/11 11:54:50;;;;;;;8.00;4.03;;;;;;;;;;5056832;28;20044;-57
2023/07/11 11:57:27;;;;;;;6.57;4.40;;;;;;;;;;5055511;28;20056;-61
2023/07/11 11:59:54;;;;;;;10.70;4.30;;;;;;;;;;5054611;28;20065;-60
2023/07/11 12:02:31;;;;;;;8.10;3.90;;;;;;;;;;5057935;28;20044;-58
2023/07/11 12:05:04;;;;;;;6.75;4.45;;;;;;;;;;5068164;28;20031;-58
2023/07/11 12:07:32;;;;;;;6.80;4.68;;;;;;;;;;5064572;28;20041;-61
2023/07/11 12:09:58;;;;;;;8.80;3.95;;;;;;;;;;5065651;28;20040;-58
2023/07/11 12:12:25;;;;;;;7.93;4.57;;;;;;;;;;5060779;28;20036;-61
2023/07/11 12:14:51;;;;;;;5.72;4.07;;;;;;;;;;5066560;28;20040;-60
2023/07/11 12:17:32;;;;;;;10.88;4.20;;;;;;;;;;5070473;28;20051;-62
2023/07/11 12:19:58;;;;;;;7.13;4.13;;;;;;;;;;5072975;28;20071;-60
2023/07/11 12:22:26;;;;;;;8.30;4.47;;;;;;;;;;5062320;28;20036;-62
2023/07/11 12:25:03;;;;;;;7.43;4.88;;;;;;;;;;5066776;28;20080;-58
2023/07/11 12:27:29;;;;;;;5.72;3.90;;;;;;;;;;5067962;28;20063;-62
2023/07/11 12:29:55;;;;;;;8.70;4.80;;;;;;;;;;5069480;28;20031;-62
2023/07/11 12:32:34;;;;;;;11.35;4.60;;;;;;;;;;5065113;28;20037;-61
2023/07/11 12:35:06;;;;;;;8.07;4.65;;;;;;;;;;5062676;28;20130;-63
2023/07/11 12:37:40;;;;;;;8.23;4.40;;;;;;;;;;5064836;28;20119;-61
2023/07/11 12:40:27;;;;;;;7.65;4.68;;;;;;;;;;5069164;28;20407;-61
2023/07/11 12:42:55;;;;;;;9.30;4.38;;;;;;;;;;5063027;28;20106;-62
2023/07/11 12:45:25;;;;;;;7.30;4.10;;;;;;;;;;5059971;28;20128;-59
2023/07/11 12:48:00;;;;;;;6.45;4.22;;;;;;;;;;5068449;28;20040;-56
2023/07/11 12:50:29;;;;;;;9.23;4.65;;;;;;;;;;5073893;28;20064;-60
2023/07/11 12:53:03;;;;;;;6.40;4.13;;;;;;;;;;5059551;28;20123;-57
2023/07/11 12:55:30;;;;;;;8.35;4.93;;;;;;;;;;5067235;28;20075;-60
2023/07/11 12:57:56;;;;;;;10.48;5.07;;;;;;;;;;5062734;28;20043;-58
2023/07/11 13:00:24;;;;;;;10.80;4.43;;;;;;;;;;5063587;28;20044;-57
2023/07/11 13:03:00;;;;;;;8.85;4.88;;;;;;;;;;5068294;28;20044;-60
2023/07/11 13:05:26;;;;;;;6.32;4.05;;;;;;;;;;5066545;28;20033;-59
2023/07/11 13:07:51;;;;;;;8.40;4.22;;;;;;;;;;5070065;28;20044;-60
2023/07/11 13:10:23;;;;;;;8.95;4.95;;;;;;;;;;5073681;28;20443;-61
2023/07/11 13:12:51;;;;;;;7.65;5.25;;;;;;;;;;5055912;28;20042;-62
2023/07/11 13:15:21;;;;;;;7.13;4.32;;;;;;;;;;5057835;28;20044;-60
2023/07/11 13:17:49;;;;;;;11.93;4.70;;;;;;;;;;5064902;28;20032;-61
2023/07/11 13:20:21;;;;;;;6.93;4.30;;;;;;;;;;5068985;28;20514;-58
2023/07/11 13:22:47;;;;;;;6.38;4.63;;;;;;;;;;5073287;28;20036;-59
2023/07/11 13:25:17;;;;;;;7.70;5.05;;;;;;;;;;5072549;28;20050;-58
2023/07/11 13:27:47;;;;;;;7.70;4.95;;;;;;;;;;5052706;28;20051;-60
2023/07/11 13:30:20;;;;;;;11.10;5.00;;;;;;;;;;5065414;28;20119;-59